Time;durP1;ratioP1;P1;durP2;ratioP2;P2;SDS_P1;SDS_P2;PMS_P1;PMS_P2;Temp;Humidity;BMP_temperature;BMP_pressure;BME280_temperature;BME280_humidity;BME280_pressure;Samples;Min_cycle;Max_cycle;Signal;HPM_P1;HPM_P2
2021/12/15 06:02:31;;;;;;;;;;;;;;;2.74;86.13;98165.06;4250318;27;10190;-64
2021/12/15 06:04:33;;;;;;;;;;;;;;;2.75;86.21;98177.19;4248448;27;5597;-64
2021/12/15 06:06:35;;;;;;;;;;;;;;;2.81;86.14;98176.72;4243207;27;6257;-64
2021/12/15 06:08:37;;;;;;;;;;;;;;;2.89;85.96;98173.56;4243869;27;5602;-65
2021/12/15 06:10:41;;;;;;;;;;;;;;;2.93;85.85;98168.00;4232150;28;5612;-64
2021/12/15 06:12:43;;;;;;;;;;;;;;;3.00;86.36;98172.78;4228072;28;5856;-64
2021/12/15 06:14:45;;;;;;;;;;;;;;;3.05;86.48;98171.47;4239264;27;5806;-64
2021/12/15 06:16:47;;;;;;;;;;;;;;;3.12;86.61;98172.72;4236778;27;6347;-64
2021/12/15 06:18:49;;;;;;;;;;;;;;;3.20;86.76;98167.75;4246662;27;5768;-64
2021/12/15 06:20:53;;;;;;;;;;;;;;;3.30;86.63;98170.53;4234290;27;5650;-64
2021/12/15 06:22:58;;;;;;;;;;;;;;;3.32;86.64;98173.84;4239821;27;5671;-63
2021/12/15 06:25:00;;;;;;;;;;;;;;;3.38;86.48;98176.00;4242160;27;5675;-64
2021/12/15 06:27:09;;;;;;;;;;;;;;;3.41;87.04;98169.72;4231897;27;5746;-64
2021/12/15 06:29:11;;;;;;;;;;;;;;;3.49;86.73;98176.03;4252706;27;5629;-64
2021/12/15 06:31:15;;;;;;;;;;;;;;;3.60;86.59;98179.63;4235696;27;5121;-64
2021/12/15 06:33:18;;;;;;;;;;;;;;;3.63;86.69;98176.78;4231363;28;5620;-63
2021/12/15 06:35:19;;;;;;;;;;;;;;;3.63;86.53;98167.16;4234910;27;5705;-63
2021/12/15 06:37:22;;;;;;;;;;;;;;;3.65;86.39;98178.34;4241981;27;5679;-63
2021/12/15 06:39:23;;;;;;;;;;;;;;;3.73;86.28;98172.50;4232693;27;5694;-63
2021/12/15 06:41:25;;;;;;;;;;;;;;;3.75;86.27;98183.72;4232936;27;5834;-63
2021/12/15 06:43:27;;;;;;;;;;;;;;;3.77;86.48;98173.97;4231803;28;5690;-63
2021/12/15 06:45:37;;;;;;;;;;;;;;;3.75;86.53;98173.25;4224775;27;5132;-65
2021/12/15 06:59:10;;;;;;;;;;;;;;;3.79;85.84;98182.50;4248610;27;5659;-66
2021/12/15 07:01:13;;;;;;;;;;;;;;;3.74;85.65;98184.66;4248902;27;5815;-66
2021/12/15 07:03:17;;;;;;;;;;;;;;;3.73;85.92;98185.59;4235645;27;5661;-65
2021/12/15 07:05:20;;;;;;;;;;;;;;;3.71;85.96;98200.56;4237621;27;5654;-66
2021/12/15 07:07:22;;;;;;;;;;;;;;;3.68;85.92;98191.19;4237498;27;5857;-67
2021/12/15 07:09:24;;;;;;;;;;;;;;;3.67;86.20;98188.69;4237596;28;5650;-66
2021/12/15 07:11:25;;;;;;;;;;;;;;;3.70;86.00;98193.66;4237393;27;5752;-67
2021/12/15 07:13:28;;;;;;;;;;;;;;;3.73;85.93;98198.66;4237668;27;5701;-67
2021/12/15 07:15:31;;;;;;;;;;;;;;;3.73;85.98;98198.66;4235805;28;5873;-66
2021/12/15 07:17:35;;;;;;;;;;;;;;;3.72;85.83;98200.44;4237277;27;5813;-66
2021/12/15 07:20:03;;;;;;;;;;;;;;;3.76;85.92;98203.69;4234495;27;5865;-66
2021/12/15 07:22:15;;;;;;;;;;;;;;;3.79;85.52;98206.06;4228472;28;5675;-66
2021/12/15 07:24:17;;;;;;;;;;;;;;;3.82;85.88;98211.06;4237436;27;5718;-66
2021/12/15 07:26:19;;;;;;;;;;;;;;;3.88;85.73;98202.75;4237161;27;5655;-66
2021/12/15 07:28:24;;;;;;;;;;;;;;;3.88;86.20;98202.75;4237058;28;5652;-66
2021/12/15 07:30:28;;;;;;;;;;;;;;;3.86;86.00;98211.66;4235503;28;5783;-65
2021/12/15 07:32:30;;;;;;;;;;;;;;;3.73;86.81;98209.13;4237259;28;5635;-67
2021/12/15 07:34:31;;;;;;;;;;;;;;;3.93;86.21;98203.22;4237211;27;5662;-68
2021/12/15 07:36:33;;;;;;;;;;;;;;;3.97;86.22;98214.31;4231210;28;5650;-66
2021/12/15 07:38:41;;;;;;;;;;;;;;;4.06;85.84;98219.63;4223064;28;5688;-67
2021/12/15 07:40:42;;;;;;;;;;;;;;;4.03;85.60;98214.66;4233362;28;5804;-66
2021/12/15 07:45:15;;;;;;;;;;;;;;;4.05;85.56;98228.44;4227712;28;5654;-65
2021/12/15 07:47:17;;;;;;;;;;;;;;;4.03;85.70;98230.34;4237670;27;5745;-65
2021/12/15 07:49:20;;;;;;;;;;;;;;;4.02;85.83;98220.00;4213065;28;5650;-66
2021/12/15 07:51:24;;;;;;;;;;;;;;;4.08;85.53;98219.56;4217905;28;5612;-66
2021/12/15 07:53:26;;;;;;;;;;;;;;;4.10;85.76;98220.25;4219756;28;6371;-65
2021/12/15 07:55:27;;;;;;;;;;;;;;;4.16;85.72;98211.09;4225569;27;6400;-67
2021/12/15 07:57:29;;;;;;;;;;;;;;;4.20;85.59;98223.00;4219814;28;5667;-68
2021/12/15 07:59:31;;;;;;;;;;;;;;;4.26;85.26;98223.34;4219769;28;5683;-68
2021/12/15 08:01:33;;;;;;;;;;;;;;;4.28;85.24;98225.84;4219482;28;5680;-68
2021/12/15 08:03:39;;;;;;;;;;;;;;;4.16;85.91;98226.78;4219627;28;5667;-69
2021/12/15 08:05:43;;;;;;;;;;;;;;;4.14;85.96;98216.44;4219480;28;5790;-68
2021/12/15 08:07:45;;;;;;;;;;;;;;;4.21;85.89;98219.44;4219737;28;5680;-69
2021/12/15 08:09:49;;;;;;;;;;;;;;;4.21;85.00;98222.88;4219636;28;5833;-66
2021/12/15 08:11:51;;;;;;;;;;;;;;;3.94;86.05;98219.75;4217910;28;5627;-65
2021/12/15 08:13:52;;;;;;;;;;;;;;;3.87;86.31;98218.56;4218665;28;5699;-65
2021/12/15 08:15:55;;;;;;;;;;;;;;;4.10;86.01;98212.41;4217883;28;5612;-65
2021/12/15 08:17:56;;;;;;;;;;;;;;;4.16;85.33;98216.31;4219451;28;5672;-68
2021/12/15 08:19:58;;;;;;;;;;;;;;;4.18;85.32;98220.47;4219169;28;5790;-69
2021/12/15 08:22:00;;;;;;;;;;;;;;;4.24;84.96;98225.25;4218924;28;5100;-68
2021/12/15 08:24:02;;;;;;;;;;;;;;;4.01;85.54;98223.56;4219084;28;7714;-67
2021/12/15 08:26:06;;;;;;;;;;;;;;;3.77;86.66;98221.03;4224185;27;5737;-69
2021/12/15 08:28:10;;;;;;;;;;;;;;;3.82;86.90;98226.75;4228171;28;5667;-65
2021/12/15 08:30:19;;;;;;;;;;;;;;;3.83;86.52;98225.78;4219454;28;6463;-66
2021/12/15 08:32:20;;;;;;;;;;;;;;;3.63;87.03;98229.09;4219566;28;5817;-66
2021/12/15 08:34:22;;;;;;;;;;;;;;;3.50;87.75;98224.75;4219391;28;5668;-65
2021/12/15 08:36:24;;;;;;;;;;;;;;;3.67;87.35;98230.53;4223162;27;5780;-65
2021/12/15 08:38:27;;;;;;;;;;;;;;;3.67;87.12;98227.91;4232032;27;5787;-67
2021/12/15 08:40:29;;;;;;;;;;;;;;;3.95;86.25;98222.25;4217952;28;5765;-66
2021/12/15 08:42:30;;;;;;;;;;;;;;;4.09;85.85;98222.03;4217804;28;5628;-67
2021/12/15 08:44:32;;;;;;;;;;;;;;;4.21;85.25;98229.91;4218691;28;5668;-67
2021/12/15 08:46:41;;;;;;;;;;;;;;;4.06;85.55;98234.50;4219309;28;5698;-67
2021/12/15 08:48:44;;;;;;;;;;;;;;;4.20;85.48;98243.94;4219031;28;5671;-67
2021/12/15 08:50:46;;;;;;;;;;;;;;;4.14;85.27;98236.56;4219317;28;5723;-68
2021/12/15 08:52:48;;;;;;;;;;;;;;;4.31;84.95;98238.72;4217551;28;5695;-68
2021/12/15 08:54:49;;;;;;;;;;;;;;;4.04;84.10;98236.41;4217960;28;5727;-67
2021/12/15 08:56:52;;;;;;;;;;;;;;;4.12;84.47;98236.69;4219065;28;5659;-68
2021/12/15 08:58:55;;;;;;;;;;;;;;;4.18;84.69;98235.34;4217629;28;5623;-67
2021/12/15 09:00:58;;;;;;;;;;;;;;;4.25;83.69;98231.31;4218734;28;5655;-65
2021/12/15 09:03:01;;;;;;;;;;;;;;;4.37;83.62;98236.44;4232841;28;5662;-66
2021/12/15 09:05:03;;;;;;;;;;;;;;;4.31;83.45;98233.47;4235667;28;5762;-66
2021/12/15 09:07:05;;;;;;;;;;;;;;;4.35;83.76;98235.72;4235313;27;5649;-64
2021/12/15 09:09:10;;;;;;;;;;;;;;;4.33;83.54;98232.41;4235336;27;5749;-66
2021/12/15 09:11:15;;;;;;;;;;;;;;;4.40;83.33;98227.50;4235106;27;5674;-66
2021/12/15 09:13:17;;;;;;;;;;;;;;;4.42;83.25;98243.97;4231481;28;5613;-66
2021/12/15 09:15:19;;;;;;;;;;;;;;;4.38;83.09;98234.66;4225393;28;5612;-66
2021/12/15 09:17:21;;;;;;;;;;;;;;;4.41;83.16;98236.19;4218210;28;5675;-67
2021/12/15 09:19:23;;;;;;;;;;;;;;;4.23;83.47;98241.09;4218017;28;5675;-66
2021/12/15 09:21:27;;;;;;;;;;;;;;;4.33;83.76;98245.50;4218326;28;5706;-66
2021/12/15 09:23:29;;;;;;;;;;;;;;;4.37;83.67;98230.38;4218336;28;5670;-67
2021/12/15 09:25:31;;;;;;;;;;;;;;;4.52;83.51;98229.16;4219656;28;5662;-67
2021/12/15 09:27:32;;;;;;;;;;;;;;;4.36;83.34;98237.41;4223103;28;5749;-66
2021/12/15 09:29:34;;;;;;;;;;;;;;;4.23;83.87;98228.00;4235141;28;5654;-67
2021/12/15 09:31:37;;;;;;;;;;;;;;;4.31;83.94;98233.47;4231741;28;5670;-66
2021/12/15 09:33:41;;;;;;;;;;;;;;;4.18;83.86;98232.72;4229641;28;5737;-65
2021/12/15 09:35:43;;;;;;;;;;;;;;;4.37;83.59;98225.97;4221600;28;6294;-67
2021/12/15 09:37:45;;;;;;;;;;;;;;;4.39;83.29;98233.69;4217049;28;5738;-67
2021/12/15 09:39:47;;;;;;;;;;;;;;;4.31;83.79;98231.69;4234443;28;6306;-67
2021/12/15 09:41:54;;;;;;;;;;;;;;;4.02;84.69;98233.91;4234782;28;5691;-66
2021/12/15 09:43:58;;;;;;;;;;;;;;;4.25;83.83;98236.56;4217902;28;5679;-66
2021/12/15 09:46:13;;;;;;;;;;;;;;;4.36;84.19;98234.78;4217989;28;5752;-64
2021/12/15 10:05:16;;;;;;;;;;;;;;;4.55;83.10;98208.00;4217822;28;5761;-67
2021/12/15 10:07:17;;;;;;;;;;;;;;;4.71;82.71;98209.38;4209600;28;5715;-68
2021/12/15 10:12:08;;;;;;;;;;;;;;;4.79;81.95;98196.53;4232814;28;5690;-67
2021/12/15 10:19:09;;;;;;;;;;;;;;;4.71;81.53;98191.06;4217855;28;5679;-65
2021/12/15 10:21:31;;;;;;;;;;;;;;;4.58;81.86;98185.97;4217683;28;5679;-64
2021/12/15 10:23:40;;;;;;;;;;;;;;;4.70;81.75;98181.53;4217682;28;5675;-66
2021/12/15 10:25:49;;;;;;;;;;;;;;;4.77;81.67;98183.56;4217774;28;5675;-67
2021/12/15 10:27:58;;;;;;;;;;;;;;;4.64;81.64;98188.94;4217385;28;5671;-65
2021/12/15 10:30:09;;;;;;;;;;;;;;;4.55;80.19;98187.03;4217437;28;5758;-67
2021/12/15 10:32:11;;;;;;;;;;;;;;;4.60;81.05;98181.44;4222889;28;5613;-66
2021/12/15 10:34:12;;;;;;;;;;;;;;;4.60;80.55;98177.03;4233185;28;5605;-67
2021/12/15 10:36:34;;;;;;;;;;;;;;;4.67;79.95;98170.34;4230985;27;5683;-67
2021/12/15 10:38:44;;;;;;;;;;;;;;;4.71;80.09;98170.09;4218603;28;5612;-67
2021/12/15 10:41:09;;;;;;;;;;;;;;;4.83;79.86;98166.50;4232330;28;5638;-65
2021/12/15 10:43:11;;;;;;;;;;;;;;;4.59;79.83;98171.91;4237253;27;5658;-66
2021/12/15 10:45:15;;;;;;;;;;;;;;;4.64;81.42;98160.13;4221052;27;5676;-67
2021/12/15 10:47:24;;;;;;;;;;;;;;;4.52;82.18;98166.31;4220987;28;5699;-66
2021/12/15 10:49:32;;;;;;;;;;;;;;;4.61;82.56;98170.00;4225871;28;5654;-65
2021/12/15 10:51:44;;;;;;;;;;;;;;;4.72;81.64;98167.34;4237588;28;5654;-66
2021/12/15 10:53:49;;;;;;;;;;;;;;;4.71;81.16;98170.09;4237513;27;5661;-67
2021/12/15 10:55:51;;;;;;;;;;;;;;;4.76;81.64;98174.03;4237417;27;5638;-66
2021/12/15 10:57:52;;;;;;;;;;;;;;;4.89;81.25;98174.69;4237657;27;5673;-67
2021/12/15 10:59:56;;;;;;;;;;;;;;;4.93;81.19;98164.78;4237414;27;5646;-67
2021/12/15 11:02:14;;;;;;;;;;;;;;;4.80;80.89;98162.34;4230033;28;5727;-67
2021/12/15 11:04:37;;;;;;;;;;;;;;;4.58;81.80;98165.84;4223344;28;5729;-65
2021/12/15 11:06:39;;;;;;;;;;;;;;;4.77;81.62;98159.13;4226483;28;5770;-66
2021/12/15 11:08:40;;;;;;;;;;;;;;;4.91;80.70;98164.09;4237268;27;5646;-67
2021/12/15 11:10:42;;;;;;;;;;;;;;;4.94;80.95;98164.66;4231095;28;5778;-68
2021/12/15 11:12:47;;;;;;;;;;;;;;;5.03;79.86;98168.34;4220349;28;5805;-67
2021/12/15 11:15:03;;;;;;;;;;;;;;;5.14;80.21;98165.66;4220150;27;5687;-66
2021/12/15 11:17:12;;;;;;;;;;;;;;;5.15;79.59;98164.72;4231663;28;5738;-63
2021/12/15 11:19:41;;;;;;;;;;;;;;;4.98;79.53;98162.63;4236677;28;5646;-63
2021/12/15 11:21:43;;;;;;;;;;;;;;;4.95;79.71;98158.47;4238013;27;5101;-63
2021/12/15 11:23:45;;;;;;;;;;;;;;;5.04;80.22;98156.88;4228064;28;5658;-63
2021/12/15 11:25:49;;;;;;;;;;;;;;;5.05;78.85;98157.72;4224511;28;6357;-63
2021/12/15 11:27:56;;;;;;;;;;;;;;;4.94;78.11;98158.59;4229713;27;5803;-64
2021/12/15 11:29:58;;;;;;;;;;;;;;;4.94;78.28;98159.41;4222593;28;5691;-63
2021/12/15 11:31:59;;;;;;;;;;;;;;;4.87;78.32;98158.28;4222086;28;5675;-63
2021/12/15 11:34:05;;;;;;;;;;;;;;;4.77;78.63;98154.72;4223188;28;5653;-63
2021/12/15 11:36:25;;;;;;;;;;;;;;;4.71;79.14;98159.63;4223896;28;5675;-64
2021/12/15 11:38:29;;;;;;;;;;;;;;;4.62;79.88;98162.00;4219439;28;5746;-64
2021/12/15 11:40:36;;;;;;;;;;;;;;;4.70;79.96;98152.72;4219652;28;5697;-65
2021/12/15 11:42:42;;;;;;;;;;;;;;;4.65;79.64;98155.72;4219528;28;5683;-65
2021/12/15 11:44:43;;;;;;;;;;;;;;;4.63;80.23;98153.19;4218863;28;5675;-65
2021/12/15 11:46:45;;;;;;;;;;;;;;;4.62;79.72;98155.94;4218972;28;5679;-64
2021/12/15 11:48:53;;;;;;;;;;;;;;;4.59;79.69;98157.03;4228742;28;6441;-64
2021/12/15 11:51:06;;;;;;;;;;;;;;;4.62;79.99;98155.94;4228456;27;5708;-64
2021/12/15 11:53:19;;;;;;;;;;;;;;;4.34;79.88;98155.53;4222344;28;5720;-64
2021/12/15 11:55:31;;;;;;;;;;;;;;;4.46;79.63;98155.50;4233658;28;5802;-64
2021/12/15 11:57:33;;;;;;;;;;;;;;;4.27;80.59;98156.13;4219122;28;6523;-64
2021/12/15 11:59:39;;;;;;;;;;;;;;;4.52;79.92;98155.00;4235360;28;5682;-64
2021/12/15 12:01:54;;;;;;;;;;;;;;;4.64;79.81;98154.03;4223889;27;5683;-65
2021/12/15 12:04:20;;;;;;;;;;;;;;;4.66;79.22;98155.59;4219750;28;5663;-64
2021/12/15 12:06:25;;;;;;;;;;;;;;;4.65;78.96;98150.47;4226226;28;5655;-64
2021/12/15 12:08:29;;;;;;;;;;;;;;;4.52;78.64;98161.06;4230802;27;5719;-67
2021/12/15 12:10:48;;;;;;;;;;;;;;;4.51;79.59;98161.19;4227303;28;5638;-65
2021/12/15 12:13:11;;;;;;;;;;;;;;;4.57;79.08;98158.09;4217933;28;5683;-66
2021/12/15 12:15:15;;;;;;;;;;;;;;;4.51;78.61;98151.56;4225393;28;5741;-66
2021/12/15 12:17:21;;;;;;;;;;;;;;;4.45;79.03;98159.91;4235020;28;6206;-65
2021/12/15 12:19:23;;;;;;;;;;;;;;;4.50;78.81;98168.22;4236257;27;5694;-66
2021/12/15 12:21:25;;;;;;;;;;;;;;;4.48;78.57;98159.66;4235492;28;5649;-67
2021/12/15 12:23:29;;;;;;;;;;;;;;;4.38;78.10;98156.09;4219362;28;5081;-64
2021/12/15 12:25:36;;;;;;;;;;;;;;;4.31;78.20;98158.38;4219147;28;5680;-64
2021/12/15 12:27:40;;;;;;;;;;;;;;;4.18;78.43;98164.69;4227371;28;5650;-66
2021/12/15 12:29:43;;;;;;;;;;;;;;;4.16;78.72;98153.50;4234814;28;5707;-67
2021/12/15 12:31:45;;;;;;;;;;;;;;;4.15;78.44;98157.91;4234467;27;5642;-66
2021/12/15 12:33:46;;;;;;;;;;;;;;;4.06;78.34;98156.84;4219098;28;5683;-65
2021/12/15 12:35:53;;;;;;;;;;;;;;;4.03;78.86;98153.63;4218983;28;5687;-65
2021/12/15 12:37:58;;;;;;;;;;;;;;;4.01;78.74;98145.91;4218012;28;5612;-67
2021/12/15 12:40:08;;;;;;;;;;;;;;;4.06;78.73;98158.63;4218751;28;5763;-67
2021/12/15 12:42:38;;;;;;;;;;;;;;;4.03;78.78;98153.63;4217968;28;5620;-64
2021/12/15 12:44:48;;;;;;;;;;;;;;;3.97;78.67;98154.94;4215443;28;5999;-65
2021/12/15 12:46:57;;;;;;;;;;;;;;;3.92;78.96;98157.06;4219476;28;5955;-67
2021/12/15 12:59:27;;;;;;;;;;;;;;;4.07;79.22;98150.66;4221685;28;5085;-66
2021/12/15 13:01:32;;;;;;;;;;;;;;;4.07;78.78;98148.03;4220899;28;5742;-66
2021/12/15 13:03:43;;;;;;;;;;;;;;;4.08;79.28;98147.09;4221489;28;5658;-67
2021/12/15 13:06:13;;;;;;;;;;;;;;;4.14;79.67;98150.19;4222959;28;5647;-67
2021/12/15 13:08:29;;;;;;;;;;;;;;;4.08;78.89;98149.72;4202418;28;5667;-67
2021/12/15 13:10:47;;;;;;;;;;;;;;;4.00;78.83;98146.84;4218642;28;5683;-67
2021/12/15 13:12:49;;;;;;;;;;;;;;;3.93;79.43;98153.50;4222229;28;5646;-68
2021/12/15 13:14:54;;;;;;;;;;;;;;;3.99;79.03;98147.81;4235446;28;6357;-68
2021/12/15 13:17:00;;;;;;;;;;;;;;;3.88;79.63;98153.03;4219499;27;5732;-66
2021/12/15 13:19:14;;;;;;;;;;;;;;;4.02;79.54;98152.81;4218455;28;5703;-65
2021/12/15 13:21:20;;;;;;;;;;;;;;;4.07;79.39;98150.66;4219854;28;5793;-66
2021/12/15 13:23:44;;;;;;;;;;;;;;;4.28;79.07;98142.06;4233024;28;5771;-65
2021/12/15 13:30:36;;;;;;;;;;;;;;;4.43;79.01;98135.63;4221890;28;5675;-66
2021/12/15 13:32:46;;;;;;;;;;;;;;;4.46;78.48;98139.78;4229239;28;5616;-65
2021/12/15 13:34:49;;;;;;;;;;;;;;;4.44;78.80;98131.22;4222456;27;5762;-67
2021/12/15 13:36:55;;;;;;;;;;;;;;;4.46;78.67;98130.16;4232958;28;5757;-65
2021/12/15 13:39:06;;;;;;;;;;;;;;;4.34;78.39;98141.59;4233965;28;5729;-67
2021/12/15 13:41:38;;;;;;;;;;;;;;;4.09;79.34;98135.69;4233295;28;5647;-66
2021/12/15 13:43:48;;;;;;;;;;;;;;;4.26;79.36;98141.38;4230869;28;5679;-69
2021/12/15 13:45:50;;;;;;;;;;;;;;;4.46;78.73;98131.94;4218446;28;6352;-66
2021/12/15 13:47:52;;;;;;;;;;;;;;;4.56;78.86;98130.25;4222729;28;5713;-67
2021/12/15 13:49:56;;;;;;;;;;;;;;;4.56;78.00;98136.31;4249126;27;5633;-66
2021/12/15 13:52:07;;;;;;;;;;;;;;;4.54;78.32;98135.63;4223527;27;5687;-65
2021/12/15 13:54:44;;;;;;;;;;;;;;;4.50;78.04;98130.72;4224611;28;5661;-65
2021/12/15 13:56:54;;;;;;;;;;;;;;;4.50;78.18;98128.94;4233113;27;5825;-67
2021/12/15 13:58:56;;;;;;;;;;;;;;;4.17;78.05;98139.47;4222374;28;6309;-66
2021/12/15 14:01:03;;;;;;;;;;;;;;;4.32;78.18;98139.09;4220438;28;5586;-66
2021/12/15 14:03:07;;;;;;;;;;;;;;;4.42;78.51;98139.22;4217053;28;5728;-66
2021/12/15 14:05:15;;;;;;;;;;;;;;;4.43;77.68;98140.06;4217629;28;5829;-66
2021/12/15 14:07:41;;;;;;;;;;;;;;;4.42;77.96;98144.47;4222112;28;5790;-66
2021/12/15 14:09:44;;;;;;;;;;;;;;;4.26;77.40;98139.56;4225136;28;5671;-66
2021/12/15 14:11:46;;;;;;;;;;;;;;;4.11;77.62;98140.78;4230360;28;6334;-67
2021/12/15 14:14:22;;;;;;;;;;;;;;;4.03;78.55;98144.00;4237065;27;5839;-64
2021/12/15 14:16:52;;;;;;;;;;;;;;;3.94;78.64;98144.69;4219956;28;5592;-67
2021/12/15 14:18:55;;;;;;;;;;;;;;;3.87;79.28;98148.75;4219670;28;5688;-67
2021/12/15 14:21:03;;;;;;;;;;;;;;;3.84;79.26;98150.75;4220613;28;5666;-66
2021/12/15 14:23:08;;;;;;;;;;;;;;;3.73;79.34;98146.34;4220779;28;5703;-66
2021/12/15 14:25:10;;;;;;;;;;;;;;;3.75;79.68;98152.31;4227022;28;5691;-66
2021/12/15 14:27:12;;;;;;;;;;;;;;;3.79;79.48;98153.75;4233041;27;6387;-66
2021/12/15 14:29:27;;;;;;;;;;;;;;;3.80;80.23;98152.78;4223588;27;5716;-66
2021/12/15 14:31:32;;;;;;;;;;;;;;;3.86;79.83;98157.56;4218762;28;5768;-67
2021/12/15 14:33:49;;;;;;;;;;;;;;;3.93;79.68;98155.28;4220465;28;5671;-66
2021/12/15 14:35:54;;;;;;;;;;;;;;;3.99;79.32;98158.28;4243542;27;5696;-66
2021/12/15 14:37:56;;;;;;;;;;;;;;;4.01;79.17;98156.38;4244701;27;5662;-66
2021/12/15 14:40:21;;;;;;;;;;;;;;;4.07;79.25;98155.88;4226130;28;5679;-66
2021/12/15 14:42:27;;;;;;;;;;;;;;;4.14;79.17;98148.41;4224458;27;5700;-65
2021/12/15 14:44:31;;;;;;;;;;;;;;;4.21;79.38;98154.81;4226616;27;5683;-64
2021/12/15 14:46:37;;;;;;;;;;;;;;;4.26;79.39;98157.91;4220606;28;5691;-65
2021/12/15 14:48:38;;;;;;;;;;;;;;;4.26;79.46;98157.06;4220561;28;5751;-67
2021/12/15 14:50:40;;;;;;;;;;;;;;;4.29;79.39;98168.13;4226751;27;5638;-67
2021/12/15 14:52:48;;;;;;;;;;;;;;;4.33;79.56;98166.13;4237120;27;5709;-65
2021/12/15 14:54:53;;;;;;;;;;;;;;;4.25;79.58;98171.13;4237639;28;5654;-65
2021/12/15 14:57:02;;;;;;;;;;;;;;;4.23;79.91;98179.09;4237336;28;5665;-64
2021/12/15 14:59:04;;;;;;;;;;;;;;;4.35;79.53;98172.91;4236958;28;6315;-66
2021/12/15 15:01:05;;;;;;;;;;;;;;;4.25;80.06;98181.59;4237068;27;5675;-66
2021/12/15 15:03:08;;;;;;;;;;;;;;;4.08;80.73;98183.75;4229771;27;5691;-64
2021/12/15 15:05:12;;;;;;;;;;;;;;;4.07;80.83;98183.84;4219088;28;5668;-66
2021/12/15 15:07:19;;;;;;;;;;;;;;;3.91;81.18;98180.75;4217029;28;5632;-66
2021/12/15 15:09:24;;;;;;;;;;;;;;;3.76;81.68;98182.75;4217665;28;5699;-67
2021/12/15 15:11:27;;;;;;;;;;;;;;;3.72;81.70;98182.13;4221829;28;5840;-66
2021/12/15 15:13:29;;;;;;;;;;;;;;;3.83;81.44;98190.94;4223143;28;5926;-64
2021/12/15 15:15:37;;;;;;;;;;;;;;;3.97;81.01;98185.53;4222411;28;5814;-66
2021/12/15 15:18:02;;;;;;;;;;;;;;;4.09;80.46;98180.16;4227370;28;5757;-66
2021/12/15 15:20:12;;;;;;;;;;;;;;;4.14;80.11;98186.81;4227675;27;6495;-64
2021/12/15 15:22:21;;;;;;;;;;;;;;;4.15;80.05;98193.72;4228100;28;5797;-63
2021/12/15 15:24:29;;;;;;;;;;;;;;;4.01;80.42;98198.25;4233368;28;5745;-65
2021/12/15 15:26:31;;;;;;;;;;;;;;;4.04;80.13;98197.16;4222514;27;5757;-64
2021/12/15 15:28:37;;;;;;;;;;;;;;;3.88;80.08;98200.13;4225987;27;5769;-64
2021/12/15 15:30:41;;;;;;;;;;;;;;;3.74;81.10;98202.97;4221193;27;5745;-64
2021/12/15 15:32:44;;;;;;;;;;;;;;;3.78;80.96;98197.38;4231529;27;5813;-63
2021/12/15 15:34:51;;;;;;;;;;;;;;;3.89;80.83;98201.78;4233738;27;5769;-65
2021/12/15 15:36:53;;;;;;;;;;;;;;;3.88;80.49;98194.06;4226101;27;6698;-65
2021/12/15 15:38:57;;;;;;;;;;;;;;;4.01;80.11;98203.47;4230802;27;6055;-66
2021/12/15 15:41:03;;;;;;;;;;;;;;;4.13;79.64;98204.31;4220517;27;5108;-67
2021/12/15 15:43:09;;;;;;;;;;;;;;;4.10;79.85;98212.41;4216231;28;5628;-66
2021/12/15 15:45:24;;;;;;;;;;;;;;;3.91;80.13;98218.22;4219101;28;5613;-68
2021/12/15 15:47:26;;;;;;;;;;;;;;;4.06;79.60;98217.03;4232327;28;5719;-67
2021/12/15 15:49:28;;;;;;;;;;;;;;;4.11;79.66;98215.84;4230152;28;5729;-67
2021/12/15 15:51:36;;;;;;;;;;;;;;;3.95;79.82;98219.63;4226164;28;5801;-66
2021/12/15 15:53:39;;;;;;;;;;;;;;;3.96;79.49;98223.91;4227449;27;6139;-66
2021/12/15 15:55:44;;;;;;;;;;;;;;;4.02;79.34;98220.84;4214911;28;5815;-66
2021/12/15 15:57:50;;;;;;;;;;;;;;;4.12;79.27;98220.97;4216828;28;5754;-67
2021/12/15 15:59:53;;;;;;;;;;;;;;;4.20;78.79;98228.25;4216779;28;5763;-65
2021/12/15 16:01:59;;;;;;;;;;;;;;;4.18;78.97;98224.88;4216365;28;5767;-66
2021/12/15 16:04:06;;;;;;;;;;;;;;;4.23;79.40;98217.53;4223269;28;5750;-67
2021/12/15 16:06:11;;;;;;;;;;;;;;;4.27;78.60;98226.78;4225425;28;5792;-66
2021/12/15 16:08:15;;;;;;;;;;;;;;;4.27;79.05;98230.25;4233176;27;5789;-67
2021/12/15 16:10:22;;;;;;;;;;;;;;;4.29;79.04;98227.50;4225144;27;5886;-67
2021/12/15 16:12:26;;;;;;;;;;;;;;;4.25;78.91;98236.56;4232110;27;5746;-66
2021/12/15 16:14:28;;;;;;;;;;;;;;;4.25;79.01;98229.53;4221269;27;5750;-65
2021/12/15 16:16:39;;;;;;;;;;;;;;;4.21;78.64;98235.97;4220155;27;6585;-65
2021/12/15 16:18:53;;;;;;;;;;;;;;;4.22;78.61;98242.88;4219553;27;5749;-66
2021/12/15 16:23:03;;;;;;;;;;;;;;;4.05;77.94;98251.16;4220663;28;5856;-66
2021/12/15 16:25:22;;;;;;;;;;;;;;;4.02;78.51;98244.38;4218060;28;5088;-65
2021/12/15 16:27:34;;;;;;;;;;;;;;;4.03;78.19;98243.44;4224888;28;5773;-66
2021/12/15 16:29:42;;;;;;;;;;;;;;;4.02;78.58;98246.16;4220226;28;5130;-66
2021/12/15 16:31:52;;;;;;;;;;;;;;;4.01;78.54;98247.97;4214643;28;7724;-65
2021/12/15 16:33:53;;;;;;;;;;;;;;;4.01;78.57;98250.56;4230535;27;5762;-65
2021/12/15 16:35:58;;;;;;;;;;;;;;;4.01;78.52;98254.97;4228637;28;5716;-65
2021/12/15 16:38:40;;;;;;;;;;;;;;;3.99;78.28;98257.72;4223769;28;5770;-65
2021/12/15 16:40:49;;;;;;;;;;;;;;;4.01;78.51;98255.81;4212624;28;5724;-65
2021/12/15 16:42:57;;;;;;;;;;;;;;;3.92;78.50;98261.72;4222139;28;5801;-66
2021/12/15 16:44:59;;;;;;;;;;;;;;;3.85;78.80;98259.69;4215343;28;5735;-65
2021/12/15 16:47:05;;;;;;;;;;;;;;;3.80;78.82;98262.66;4217694;28;5770;-65
2021/12/15 16:49:12;;;;;;;;;;;;;;;3.74;78.86;98269.19;4197864;28;5765;-64
2021/12/15 16:51:16;;;;;;;;;;;;;;;3.78;78.64;98261.94;4227465;28;5845;-66
2021/12/15 16:53:20;;;;;;;;;;;;;;;3.83;78.77;98267.66;4224328;28;5758;-63
2021/12/15 16:55:26;;;;;;;;;;;;;;;3.89;78.78;98272.44;4214174;28;5914;-63
2021/12/15 16:57:30;;;;;;;;;;;;;;;3.82;79.06;98265.97;4216051;28;5766;-63
2021/12/15 17:00:00;;;;;;;;;;;;;;;3.88;78.46;98268.16;4228618;27;5800;-62
2021/12/15 17:02:18;;;;;;;;;;;;;;;3.98;79.23;98263.91;4214477;28;5803;-63
2021/12/15 17:04:23;;;;;;;;;;;;;;;3.96;79.03;98263.16;4215532;28;5774;-64
2021/12/15 17:06:25;;;;;;;;;;;;;;;3.87;79.93;98263.88;4229126;28;5753;-64
2021/12/15 17:08:27;;;;;;;;;;;;;;;3.88;79.67;98265.53;4224897;28;5780;-64
2021/12/15 17:10:34;;;;;;;;;;;;;;;3.95;80.08;98260.66;4224823;28;5762;-64
2021/12/15 17:12:48;;;;;;;;;;;;;;;4.03;79.64;98264.38;4214492;28;5790;-64
2021/12/15 17:15:06;;;;;;;;;;;;;;;3.89;79.59;98267.19;4219361;28;5766;-64
2021/12/15 17:17:08;;;;;;;;;;;;;;;3.95;79.10;98271.13;4225731;28;5757;-64
2021/12/15 17:19:18;;;;;;;;;;;;;;;3.84;78.42;98266.69;4217296;28;6567;-64
2021/12/15 17:21:27;;;;;;;;;;;;;;;3.64;79.05;98262.97;4226314;28;5748;-64
2021/12/15 17:23:33;;;;;;;;;;;;;;;3.67;79.63;98273.19;4226324;27;5774;-65
2021/12/15 17:25:38;;;;;;;;;;;;;;;3.78;79.47;98275.03;4225601;27;5994;-67
2021/12/15 17:27:54;;;;;;;;;;;;;;;3.82;79.60;98275.63;4230482;27;5763;-66
2021/12/15 17:29:55;;;;;;;;;;;;;;;3.92;79.08;98281.81;4217431;28;5739;-65
2021/12/15 17:32:06;;;;;;;;;;;;;;;3.92;78.98;98284.44;4223936;28;5795;-68
2021/12/15 17:34:18;;;;;;;;;;;;;;;3.93;78.92;98280.88;4227398;28;5720;-70
2021/12/15 17:36:29;;;;;;;;;;;;;;;3.94;79.23;98274.69;4230015;28;5707;-70
2021/12/15 17:38:31;;;;;;;;;;;;;;;3.92;78.84;98269.59;4221993;27;5843;-67
2021/12/15 17:40:32;;;;;;;;;;;;;;;3.76;78.54;98277.75;4231970;27;5800;-68
2021/12/15 17:42:34;;;;;;;;;;;;;;;3.48;79.36;98278.13;4225044;28;5923;-68
2021/12/15 17:44:40;;;;;;;;;;;;;;;3.27;80.00;98274.44;4215570;28;5897;-68
2021/12/15 17:47:02;;;;;;;;;;;;;;;3.54;79.67;98276.84;4225550;27;5949;-68
2021/12/15 17:49:22;;;;;;;;;;;;;;;3.70;79.29;98279.97;4214098;27;5854;-68
2021/12/15 17:51:42;;;;;;;;;;;;;;;3.76;79.29;98282.16;4217675;28;6586;-68
2021/12/15 17:53:56;;;;;;;;;;;;;;;3.73;79.53;98282.34;4213512;28;5731;-67
2021/12/15 17:56:00;;;;;;;;;;;;;;;3.75;79.42;98280.50;4214963;28;5798;-68
2021/12/15 17:58:30;;;;;;;;;;;;;;;3.79;79.60;98279.31;4217217;28;6235;-68
2021/12/15 18:00:40;;;;;;;;;;;;;;;3.80;79.38;98280.97;4217395;28;5762;-70
2021/12/15 18:02:43;;;;;;;;;;;;;;;3.83;79.46;98287.75;4215017;27;5781;-69
2021/12/15 18:04:46;;;;;;;;;;;;;;;3.89;78.90;98287.31;4210837;28;5833;-70
2021/12/15 18:06:51;;;;;;;;;;;;;;;3.87;78.93;98283.97;4218325;28;5766;-69
2021/12/15 18:08:53;;;;;;;;;;;;;;;3.86;78.94;98280.53;4224157;28;5853;-70
2021/12/15 18:11:06;;;;;;;;;;;;;;;3.59;77.58;98282.56;4198548;28;5858;-67
2021/12/15 18:13:09;;;;;;;;;;;;;;;3.60;77.71;98286.84;4226404;28;5753;-71
2021/12/15 18:15:15;;;;;;;;;;;;;;;3.71;77.01;98287.72;4216649;28;5750;-72